sensor_id;sensor_type;location;lat;lon;timestamp;pressure;altitude;pressure_sealevel;temperature;humidity
78014;BME280;67222;50.182;8.734;2024-01-25T05:32:39;101778.81;;;7.18;79.37
78014;BME280;67222;50.182;8.734;2024-01-25T05:35:05;101776.69;;;7.21;78.17
78014;BME280;67222;50.182;8.734;2024-01-25T05:37:31;101777.91;;;7.09;79.06
78014;BME280;67222;50.182;8.734;2024-01-25T05:39:56;101781.22;;;7.11;79.65
78014;BME280;67222;50.182;8.734;2024-01-25T05:42:22;101786.03;;;6.98;79.55
78014;BME280;67222;50.182;8.734;2024-01-25T05:44:47;101779.91;;;6.97;80.75
78014;BME280;67222;50.182;8.734;2024-01-25T05:47:12;101773.91;;;6.95;80.71
78014;BME280;67222;50.182;8.734;2024-01-25T05:49:38;101779.50;;;6.92;80.30
78014;BME280;67222;50.182;8.734;2024-01-25T05:52:03;101786.09;;;6.88;80.51
78014;BME280;67222;50.182;8.734;2024-01-25T05:54:28;101790.00;;;6.84;80.36
78014;BME280;67222;50.182;8.734;2024-01-25T05:56:54;101796.63;;;6.71;80.69
78014;BME280;67222;50.182;8.734;2024-01-25T05:59:19;101794.53;;;6.64;81.91
78014;BME280;67222;50.182;8.734;2024-01-25T06:01:44;101797.31;;;6.63;81.83
78014;BME280;67222;50.182;8.734;2024-01-25T06:04:09;101809.91;;;6.61;82.21
78014;BME280;67222;50.182;8.734;2024-01-25T06:06:35;101805.72;;;6.58;82.64
78014;BME280;67222;50.182;8.734;2024-01-25T06:09:00;101805.19;;;6.55;82.77
78014;BME280;67222;50.182;8.734;2024-01-25T06:11:25;101812.09;;;6.65;82.56
78014;BME280;67222;50.182;8.734;2024-01-25T06:13:51;101801.66;;;6.64;82.27
78014;BME280;67222;50.182;8.734;2024-01-25T06:16:16;101803.75;;;6.70;82.39
78014;BME280;67222;50.182;8.734;2024-01-25T06:18:41;101800.81;;;6.73;81.21
78014;BME280;67222;50.182;8.734;2024-01-25T06:21:07;101802.31;;;6.76;80.98
78014;BME280;67222;50.182;8.734;2024-01-25T06:23:32;101792.91;;;6.91;80.07
78014;BME280;67222;50.182;8.734;2024-01-25T06:25:57;101795.28;;;6.94;80.67
78014;BME280;67222;50.182;8.734;2024-01-25T06:28:22;101788.59;;;6.90;80.17
78014;BME280;67222;50.182;8.734;2024-01-25T06:30:48;101780.22;;;6.85;80.39
78014;BME280;67222;50.182;8.734;2024-01-25T06:33:13;101779.75;;;6.72;81.62
78014;BME280;67222;50.182;8.734;2024-01-25T06:35:39;101776.97;;;6.63;81.57
78014;BME280;67222;50.182;8.734;2024-01-25T06:38:04;101770.81;;;6.73;80.83
78014;BME280;67222;50.182;8.734;2024-01-25T06:40:29;101780.53;;;6.82;80.68
78014;BME280;67222;50.182;8.734;2024-01-25T06:42:55;101794.22;;;6.77;81.32
78014;BME280;67222;50.182;8.734;2024-01-25T06:45:20;101795.66;;;6.72;80.67
78014;BME280;67222;50.182;8.734;2024-01-25T06:47:45;101799.81;;;6.74;80.42
78014;BME280;67222;50.182;8.734;2024-01-25T06:50:11;101807.47;;;6.77;80.43
78014;BME280;67222;50.182;8.734;2024-01-25T06:52:36;101806.34;;;6.80;80.44
78014;BME280;67222;50.182;8.734;2024-01-25T06:55:02;101811.25;;;6.75;81.39
78014;BME280;67222;50.182;8.734;2024-01-25T06:57:27;101809.88;;;6.71;81.06
78014;BME280;67222;50.182;8.734;2024-01-25T06:59:52;101816.00;;;6.71;81.92
78014;BME280;67222;50.182;8.734;2024-01-25T07:02:18;101811.25;;;6.75;80.84
78014;BME280;67222;50.182;8.734;2024-01-25T07:04:43;101809.59;;;6.74;81.07
78014;BME280;67222;50.182;8.734;2024-01-25T07:07:09;101810.81;;;6.79;80.43
78014;BME280;67222;50.182;8.734;2024-01-25T07:09:34;101824.38;;;6.76;81.23
78014;BME280;67222;50.182;8.734;2024-01-25T07:11:59;101825.34;;;6.65;81.85
78014;BME280;67222;50.182;8.734;2024-01-25T07:14:24;101837.78;;;6.65;81.11
78014;BME280;67222;50.182;8.734;2024-01-25T07:16:50;101851.06;;;6.55;81.09
78014;BME280;67222;50.182;8.734;2024-01-25T07:19:15;101844.63;;;6.48;81.36
78014;BME280;67222;50.182;8.734;2024-01-25T07:21:40;101841.03;;;6.40;82.44
78014;BME280;67222;50.182;8.734;2024-01-25T07:24:06;101840.91;;;6.31;83.31
78014;BME280;67222;50.182;8.734;2024-01-25T07:26:31;101842.03;;;6.29;83.69
78014;BME280;67222;50.182;8.734;2024-01-25T07:28:56;101841.72;;;6.32;83.84
78014;BME280;67222;50.182;8.734;2024-01-25T07:31:26;101840.63;;;6.34;83.96
78014;BME280;67222;50.182;8.734;2024-01-25T07:33:52;101844.13;;;6.35;83.78
78014;BME280;67222;50.182;8.734;2024-01-25T07:36:17;101837.31;;;6.32;83.76
78014;BME280;67222;50.182;8.734;2024-01-25T07:38:43;101831.56;;;6.27;83.99
78014;BME280;67222;50.182;8.734;2024-01-25T07:41:09;101844.66;;;6.29;84.11
78014;BME280;67222;50.182;8.734;2024-01-25T07:43:34;101851.50;;;6.31;84.04
78014;BME280;67222;50.182;8.734;2024-01-25T07:45:59;101855.97;;;6.31;83.88
78014;BME280;67222;50.182;8.734;2024-01-25T07:48:25;101862.09;;;6.31;84.34
78014;BME280;67222;50.182;8.734;2024-01-25T07:50:50;101864.47;;;6.34;84.96
78014;BME280;67222;50.182;8.734;2024-01-25T07:53:15;101864.88;;;6.40;83.98
78014;BME280;67222;50.182;8.734;2024-01-25T07:55:41;101864.34;;;6.36;84.92
78014;BME280;67222;50.182;8.734;2024-01-25T07:58:07;101865.28;;;6.45;84.72
78014;BME280;67222;50.182;8.734;2024-01-25T08:00:32;101859.44;;;6.51;84.26
78014;BME280;67222;50.182;8.734;2024-01-25T08:02:57;101854.84;;;6.43;84.64
78014;BME280;67222;50.182;8.734;2024-01-25T08:05:23;101869.34;;;6.39;84.42
78014;BME280;67222;50.182;8.734;2024-01-25T08:07:48;101867.69;;;6.38;84.37
78014;BME280;67222;50.182;8.734;2024-01-25T08:10:14;101880.63;;;6.41;84.18
78014;BME280;67222;50.182;8.734;2024-01-25T08:12:40;101889.03;;;6.36;84.95
78014;BME280;67222;50.182;8.734;2024-01-25T08:15:08;101886.34;;;6.46;85.10
78014;BME280;67222;50.182;8.734;2024-01-25T08:17:34;101888.44;;;6.52;85.21
78014;BME280;67222;50.182;8.734;2024-01-25T08:20:01;101890.09;;;6.63;83.89
78014;BME280;67222;50.182;8.734;2024-01-25T08:22:27;101883.81;;;6.74;84.15
78014;BME280;67222;50.182;8.734;2024-01-25T08:24:53;101880.72;;;6.78;83.42
78014;BME280;67222;50.182;8.734;2024-01-25T08:27:18;101870.66;;;6.82;83.50
78014;BME280;67222;50.182;8.734;2024-01-25T08:29:45;101846.66;;;6.83;84.32
78014;BME280;67222;50.182;8.734;2024-01-25T08:32:10;101859.47;;;6.88;84.01
78014;BME280;67222;50.182;8.734;2024-01-25T08:34:35;101852.22;;;6.90;83.99
78014;BME280;67222;50.182;8.734;2024-01-25T08:37:01;101857.38;;;6.91;83.79
78014;BME280;67222;50.182;8.734;2024-01-25T08:39:26;101867.56;;;6.96;83.70
78014;BME280;67222;50.182;8.734;2024-01-25T08:41:51;101870.31;;;7.04;84.23
78014;BME280;67222;50.182;8.734;2024-01-25T08:44:16;101866.94;;;7.12;83.95
78014;BME280;67222;50.182;8.734;2024-01-25T08:46:42;101868.56;;;7.22;83.94
78014;BME280;67222;50.182;8.734;2024-01-25T08:49:08;101870.53;;;7.20;83.91
78014;BME280;67222;50.182;8.734;2024-01-25T08:51:35;101878.25;;;7.14;83.76
78014;BME280;67222;50.182;8.734;2024-01-25T08:54:01;101881.56;;;7.25;83.78
78014;BME280;67222;50.182;8.734;2024-01-25T08:56:26;101875.28;;;7.26;83.13
78014;BME280;67222;50.182;8.734;2024-01-25T08:58:51;101887.94;;;7.33;82.88
78014;BME280;67222;50.182;8.734;2024-01-25T09:01:17;101875.59;;;7.41;82.94
78014;BME280;67222;50.182;8.734;2024-01-25T09:03:43;101878.75;;;7.54;81.89
78014;BME280;67222;50.182;8.734;2024-01-25T09:06:08;101882.53;;;7.52;82.63
78014;BME280;67222;50.182;8.734;2024-01-25T09:08:33;101885.88;;;7.54;81.81
78014;BME280;67222;50.182;8.734;2024-01-25T09:10:58;101890.00;;;7.66;82.24
78014;BME280;67222;50.182;8.734;2024-01-25T09:13:24;101892.25;;;7.61;83.07
78014;BME280;67222;50.182;8.734;2024-01-25T09:15:49;101900.78;;;7.65;81.88
78014;BME280;67222;50.182;8.734;2024-01-25T09:18:14;101889.59;;;7.61;81.51
78014;BME280;67222;50.182;8.734;2024-01-25T09:20:40;101888.34;;;7.65;81.75
78014;BME280;67222;50.182;8.734;2024-01-25T09:23:06;101883.41;;;7.70;80.86
78014;BME280;67222;50.182;8.734;2024-01-25T09:25:32;101888.06;;;7.86;80.47
78014;BME280;67222;50.182;8.734;2024-01-25T09:27:58;101879.94;;;7.87;80.30
78014;BME280;67222;50.182;8.734;2024-01-25T09:30:23;101895.03;;;7.87;79.27
78014;BME280;67222;50.182;8.734;2024-01-25T09:32:50;101890.22;;;8.00;79.09
78014;BME280;67222;50.182;8.734;2024-01-25T09:35:15;101904.53;;;8.07;79.13
78014;BME280;67222;50.182;8.734;2024-01-25T09:37:44;101900.44;;;8.13;78.58
78014;BME280;67222;50.182;8.734;2024-01-25T09:40:09;101900.28;;;8.14;77.83
78014;BME280;67222;50.182;8.734;2024-01-25T09:42:35;101913.41;;;8.16;77.40
78014;BME280;67222;50.182;8.734;2024-01-25T09:45:06;101914.41;;;8.15;77.33
78014;BME280;67222;50.182;8.734;2024-01-25T09:47:32;101907.69;;;8.20;77.80
78014;BME280;67222;50.182;8.734;2024-01-25T09:49:58;101898.78;;;8.30;78.42
78014;BME280;67222;50.182;8.734;2024-01-25T09:52:23;101906.06;;;8.28;78.95
78014;BME280;67222;50.182;8.734;2024-01-25T09:54:52;101913.06;;;8.29;77.50
78014;BME280;67222;50.182;8.734;2024-01-25T09:57:22;101919.34;;;8.28;77.16
78014;BME280;67222;50.182;8.734;2024-01-25T09:59:49;101919.00;;;8.40;77.66
78014;BME280;67222;50.182;8.734;2024-01-25T10:02:15;101921.94;;;8.55;78.45
78014;BME280;67222;50.182;8.734;2024-01-25T10:04:41;101921.34;;;8.61;77.77
78014;BME280;67222;50.182;8.734;2024-01-25T10:07:06;101924.53;;;8.65;78.21
78014;BME280;67222;50.182;8.734;2024-01-25T10:09:40;101926.50;;;8.63;76.35
78014;BME280;67222;50.182;8.734;2024-01-25T10:12:05;101934.38;;;8.72;76.87
78014;BME280;67222;50.182;8.734;2024-01-25T10:14:31;101918.53;;;8.63;75.18
78014;BME280;67222;50.182;8.734;2024-01-25T10:16:57;101918.53;;;8.63;74.87
78014;BME280;67222;50.182;8.734;2024-01-25T10:19:23;101914.03;;;8.63;75.63
78014;BME280;67222;50.182;8.734;2024-01-25T10:21:49;101914.56;;;8.67;75.39
78014;BME280;67222;50.182;8.734;2024-01-25T10:24:14;101920.19;;;8.64;74.68
78014;BME280;67222;50.182;8.734;2024-01-25T10:26:41;101931.59;;;8.74;75.06
78014;BME280;67222;50.182;8.734;2024-01-25T10:29:08;101930.22;;;8.70;74.86
78014;BME280;67222;50.182;8.734;2024-01-25T10:31:38;101923.91;;;8.71;74.48
78014;BME280;67222;50.182;8.734;2024-01-25T10:34:05;101917.31;;;8.75;74.96
78014;BME280;67222;50.182;8.734;2024-01-25T10:36:30;101912.69;;;8.85;74.70
78014;BME280;67222;50.182;8.734;2024-01-25T10:38:57;101912.06;;;8.91;74.62
78014;BME280;67222;50.182;8.734;2024-01-25T10:41:23;101912.31;;;8.98;74.77
78014;BME280;67222;50.182;8.734;2024-01-25T10:43:49;101916.72;;;9.15;73.84
78014;BME280;67222;50.182;8.734;2024-01-25T10:46:14;101916.22;;;9.12;71.96
78014;BME280;67222;50.182;8.734;2024-01-25T10:48:41;101920.91;;;9.18;72.00
78014;BME280;67222;50.182;8.734;2024-01-25T10:51:06;101922.81;;;9.33;72.21
78014;BME280;67222;50.182;8.734;2024-01-25T10:53:33;101927.63;;;9.30;71.82
78014;BME280;67222;50.182;8.734;2024-01-25T10:56:00;101931.91;;;9.23;71.40
78014;BME280;67222;50.182;8.734;2024-01-25T10:58:32;101929.41;;;9.21;72.24
78014;BME280;67222;50.182;8.734;2024-01-25T11:01:01;101934.03;;;9.19;71.57
78014;BME280;67222;50.182;8.734;2024-01-25T11:03:29;101934.00;;;9.11;71.28
78014;BME280;67222;50.182;8.734;2024-01-25T11:06:06;101928.53;;;9.13;71.86
78014;BME280;67222;50.182;8.734;2024-01-25T11:08:32;101929.22;;;9.23;71.09
78014;BME280;67222;50.182;8.734;2024-01-25T11:10:58;101922.09;;;9.23;70.84
78014;BME280;67222;50.182;8.734;2024-01-25T11:13:26;101919.09;;;9.26;71.36
78014;BME280;67222;50.182;8.734;2024-01-25T11:15:52;101909.28;;;9.27;71.37
78014;BME280;67222;50.182;8.734;2024-01-25T11:18:17;101900.91;;;9.14;70.98
78014;BME280;67222;50.182;8.734;2024-01-25T11:20:47;101901.63;;;9.24;71.48
78014;BME280;67222;50.182;8.734;2024-01-25T11:23:15;101923.97;;;9.31;71.13
78014;BME280;67222;50.182;8.734;2024-01-25T11:25:44;101923.81;;;9.32;70.65
78014;BME280;67222;50.182;8.734;2024-01-25T11:28:11;101921.84;;;9.43;71.12
78014;BME280;67222;50.182;8.734;2024-01-25T11:30:36;101918.91;;;9.54;71.17
78014;BME280;67222;50.182;8.734;2024-01-25T11:33:09;101914.28;;;9.64;70.83
78014;BME280;67222;50.182;8.734;2024-01-25T11:35:35;101917.59;;;9.58;71.79
78014;BME280;67222;50.182;8.734;2024-01-25T11:38:00;101908.78;;;9.57;70.09
78014;BME280;67222;50.182;8.734;2024-01-25T11:40:26;101900.13;;;9.55;69.58
78014;BME280;67222;50.182;8.734;2024-01-25T11:42:53;101894.63;;;9.65;69.77
78014;BME280;67222;50.182;8.734;2024-01-25T11:45:18;101897.69;;;9.78;69.30
78014;BME280;67222;50.182;8.734;2024-01-25T11:47:44;101881.66;;;9.62;69.52
78014;BME280;67222;50.182;8.734;2024-01-25T11:50:11;101878.16;;;9.61;70.00
78014;BME280;67222;50.182;8.734;2024-01-25T11:52:37;101875.66;;;9.60;70.37
78014;BME280;67222;50.182;8.734;2024-01-25T11:55:04;101870.50;;;9.58;69.17
78014;BME280;67222;50.182;8.734;2024-01-25T11:57:40;101874.97;;;9.50;69.35
78014;BME280;67222;50.182;8.734;2024-01-25T12:00:10;101877.13;;;9.54;69.37
78014;BME280;67222;50.182;8.734;2024-01-25T12:02:38;101865.53;;;9.71;69.58
78014;BME280;67222;50.182;8.734;2024-01-25T12:05:04;101864.66;;;9.63;69.54
78014;BME280;67222;50.182;8.734;2024-01-25T12:07:30;101862.38;;;9.76;70.06
78014;BME280;67222;50.182;8.734;2024-01-25T12:10:06;101854.59;;;9.99;68.13
78014;BME280;67222;50.182;8.734;2024-01-25T12:12:32;101845.94;;;10.13;68.57
78014;BME280;67222;50.182;8.734;2024-01-25T12:15:06;101840.31;;;10.49;66.17
78014;BME280;67222;50.182;8.734;2024-01-25T12:17:33;101841.75;;;10.84;66.42
78014;BME280;67222;50.182;8.734;2024-01-25T12:20:01;101833.00;;;11.06;64.75
78014;BME280;67222;50.182;8.734;2024-01-25T12:22:27;101830.38;;;11.37;64.00
78014;BME280;67222;50.182;8.734;2024-01-25T12:24:54;101838.00;;;11.48;63.14
78014;BME280;67222;50.182;8.734;2024-01-25T12:27:23;101841.59;;;11.64;63.89
78014;BME280;67222;50.182;8.734;2024-01-25T12:29:50;101834.38;;;11.41;62.29
78014;BME280;67222;50.182;8.734;2024-01-25T12:32:16;101833.91;;;11.30;63.17
78014;BME280;67222;50.182;8.734;2024-01-25T12:34:41;101834.53;;;11.40;63.88
78014;BME280;67222;50.182;8.734;2024-01-25T12:37:07;101829.09;;;11.25;64.27
78014;BME280;67222;50.182;8.734;2024-01-25T12:39:33;101828.84;;;11.04;65.25
78014;BME280;67222;50.182;8.734;2024-01-25T12:41:58;101827.72;;;10.98;64.50
78014;BME280;67222;50.182;8.734;2024-01-25T12:44:24;101825.25;;;10.80;65.50
78014;BME280;67222;50.182;8.734;2024-01-25T12:46:49;101819.13;;;11.11;65.97
78014;BME280;67222;50.182;8.734;2024-01-25T12:49:15;101827.06;;;11.27;64.07
78014;BME280;67222;50.182;8.734;2024-01-25T12:51:40;101819.16;;;11.42;62.46
78014;BME280;67222;50.182;8.734;2024-01-25T12:54:06;101811.53;;;11.93;59.98
78014;BME280;67222;50.182;8.734;2024-01-25T12:56:32;101801.06;;;12.29;60.57
78014;BME280;67222;50.182;8.734;2024-01-25T12:58:57;101790.94;;;12.54;59.18
78014;BME280;67222;50.182;8.734;2024-01-25T13:01:22;101790.75;;;12.55;59.86
78014;BME280;67222;50.182;8.734;2024-01-25T13:03:48;101796.50;;;11.92;59.29
78014;BME280;67222;50.182;8.734;2024-01-25T13:06:13;101783.19;;;11.83;59.32
78014;BME280;67222;50.182;8.734;2024-01-25T13:08:39;101787.81;;;11.90;60.55
78014;BME280;67222;50.182;8.734;2024-01-25T13:11:04;101785.88;;;11.52;60.62
78014;BME280;67222;50.182;8.734;2024-01-25T13:13:29;101795.97;;;11.42;61.13
78014;BME280;67222;50.182;8.734;2024-01-25T13:15:55;101786.81;;;11.37;61.16
78014;BME280;67222;50.182;8.734;2024-01-25T13:18:20;101796.84;;;11.35;61.44
78014;BME280;67222;50.182;8.734;2024-01-25T13:20:46;101792.59;;;11.17;62.99
78014;BME280;67222;50.182;8.734;2024-01-25T13:23:11;101785.44;;;11.10;62.72
78014;BME280;67222;50.182;8.734;2024-01-25T13:25:36;101780.03;;;10.87;61.74
78014;BME280;67222;50.182;8.734;2024-01-25T13:28:02;101771.22;;;10.78;63.46
78014;BME280;67222;50.182;8.734;2024-01-25T13:30:27;101771.28;;;10.62;63.83
78014;BME280;67222;50.182;8.734;2024-01-25T13:32:53;101762.28;;;10.55;63.58
78014;BME280;67222;50.182;8.734;2024-01-25T13:35:18;101751.97;;;10.52;64.40
78014;BME280;67222;50.182;8.734;2024-01-25T13:37:43;101759.34;;;10.42;64.65
78014;BME280;67222;50.182;8.734;2024-01-25T13:40:09;101756.28;;;10.53;64.48
78014;BME280;67222;50.182;8.734;2024-01-25T13:42:34;101758.63;;;10.40;63.69
78014;BME280;67222;50.182;8.734;2024-01-25T13:45:00;101748.97;;;10.47;64.42
78014;BME280;67222;50.182;8.734;2024-01-25T13:47:25;101757.63;;;10.41;63.37
78014;BME280;67222;50.182;8.734;2024-01-25T13:49:50;101758.84;;;10.30;64.02
78014;BME280;67222;50.182;8.734;2024-01-25T13:52:19;101758.19;;;10.28;64.25
78014;BME280;67222;50.182;8.734;2024-01-25T13:54:45;101758.00;;;10.29;65.09
78014;BME280;67222;50.182;8.734;2024-01-25T13:57:10;101749.53;;;10.26;64.60
78014;BME280;67222;50.182;8.734;2024-01-25T13:59:35;101736.38;;;10.24;64.39
78014;BME280;67222;50.182;8.734;2024-01-25T14:02:01;101732.19;;;10.30;64.79
78014;BME280;67222;50.182;8.734;2024-01-25T14:04:26;101736.50;;;10.31;65.15
78014;BME280;67222;50.182;8.734;2024-01-25T14:06:51;101729.84;;;10.27;64.65
78014;BME280;67222;50.182;8.734;2024-01-25T14:09:17;101745.50;;;10.22;64.90
78014;BME280;67222;50.182;8.734;2024-01-25T14:11:42;101752.97;;;10.18;65.42
78014;BME280;67222;50.182;8.734;2024-01-25T14:14:07;101746.66;;;10.11;64.81
78014;BME280;67222;50.182;8.734;2024-01-25T14:16:33;101744.00;;;10.11;64.83
78014;BME280;67222;50.182;8.734;2024-01-25T14:18:59;101737.53;;;10.06;64.48
78014;BME280;67222;50.182;8.734;2024-01-25T14:21:24;101740.19;;;9.97;65.94
78014;BME280;67222;50.182;8.734;2024-01-25T14:23:49;101740.19;;;9.97;65.79
78014;BME280;67222;50.182;8.734;2024-01-25T14:26:15;101732.53;;;9.94;64.40
78014;BME280;67222;50.182;8.734;2024-01-25T14:28:40;101727.84;;;9.96;63.95
78014;BME280;67222;50.182;8.734;2024-01-25T14:31:05;101724.34;;;9.96;65.59
78014;BME280;67222;50.182;8.734;2024-01-25T14:33:30;101729.19;;;10.00;64.75
78014;BME280;67222;50.182;8.734;2024-01-25T14:35:56;101733.16;;;10.13;64.13
78014;BME280;67222;50.182;8.734;2024-01-25T14:38:21;101722.69;;;10.03;66.78
78014;BME280;67222;50.182;8.734;2024-01-25T14:40:46;101729.03;;;9.94;63.94
78014;BME280;67222;50.182;8.734;2024-01-25T14:43:12;101729.53;;;9.89;63.61
78014;BME280;67222;50.182;8.734;2024-01-25T14:45:37;101726.03;;;9.89;63.45
78014;BME280;67222;50.182;8.734;2024-01-25T14:48:04;101740.34;;;9.96;64.24
78014;BME280;67222;50.182;8.734;2024-01-25T14:50:30;101748.66;;;10.01;63.52
78014;BME280;67222;50.182;8.734;2024-01-25T14:52:57;101744.53;;;9.90;63.63
78014;BME280;67222;50.182;8.734;2024-01-25T14:55:23;101745.84;;;9.78;64.11
78014;BME280;67222;50.182;8.734;2024-01-25T14:57:49;101741.69;;;9.76;65.44
78014;BME280;67222;50.182;8.734;2024-01-25T15:00:15;101728.38;;;9.76;63.71
78014;BME280;67222;50.182;8.734;2024-01-25T15:02:44;101724.88;;;9.75;65.85
78014;BME280;67222;50.182;8.734;2024-01-25T15:05:10;101725.69;;;9.76;66.61
78014;BME280;67222;50.182;8.734;2024-01-25T15:07:35;101713.72;;;9.71;66.60
78014;BME280;67222;50.182;8.734;2024-01-25T15:10:00;101721.22;;;9.68;64.92
78014;BME280;67222;50.182;8.734;2024-01-25T15:12:25;101723.34;;;9.64;64.33
78014;BME280;67222;50.182;8.734;2024-01-25T15:14:51;101732.50;;;9.62;64.96
78014;BME280;67222;50.182;8.734;2024-01-25T15:17:16;101714.03;;;9.60;64.89
78014;BME280;67222;50.182;8.734;2024-01-25T15:19:41;101707.56;;;9.55;65.39
78014;BME280;67222;50.182;8.734;2024-01-25T15:22:08;101696.88;;;9.47;65.02
78014;BME280;67222;50.182;8.734;2024-01-25T15:24:34;101701.38;;;9.46;65.08
78014;BME280;67222;50.182;8.734;2024-01-25T15:26:59;101692.72;;;9.44;65.44
78014;BME280;67222;50.182;8.734;2024-01-25T15:29:24;101694.88;;;9.40;66.40
78014;BME280;67222;50.182;8.734;2024-01-25T15:31:50;101706.19;;;9.34;66.49
78014;BME280;67222;50.182;8.734;2024-01-25T15:34:15;101703.03;;;9.31;67.55
78014;BME280;67222;50.182;8.734;2024-01-25T15:36:41;101699.69;;;9.29;67.08
78014;BME280;67222;50.182;8.734;2024-01-25T15:39:09;101695.19;;;9.21;69.14
78014;BME280;67222;50.182;8.734;2024-01-25T15:41:35;101697.53;;;9.16;69.98
78014;BME280;67222;50.182;8.734;2024-01-25T15:44:00;101709.31;;;9.14;67.97
78014;BME280;67222;50.182;8.734;2024-01-25T15:46:26;101707.97;;;9.09;68.07
78014;BME280;67222;50.182;8.734;2024-01-25T15:48:51;101710.44;;;9.03;69.71
78014;BME280;67222;50.182;8.734;2024-01-25T15:51:19;101699.31;;;8.99;71.51
78014;BME280;67222;50.182;8.734;2024-01-25T15:53:44;101702.41;;;8.87;71.89
78014;BME280;67222;50.182;8.734;2024-01-25T15:56:10;101709.22;;;8.81;71.98
78014;BME280;67222;50.182;8.734;2024-01-25T15:58:35;101710.53;;;8.77;72.52
78014;BME280;67222;50.182;8.734;2024-01-25T16:01:01;101711.31;;;8.69;72.76
78014;BME280;67222;50.182;8.734;2024-01-25T16:03:26;101702.50;;;8.61;73.95
78014;BME280;67222;50.182;8.734;2024-01-25T16:05:51;101703.63;;;8.58;73.98
78014;BME280;67222;50.182;8.734;2024-01-25T16:08:19;101696.59;;;8.49;75.53
78014;BME280;67222;50.182;8.734;2024-01-25T16:10:45;101700.41;;;8.46;74.59
78014;BME280;67222;50.182;8.734;2024-01-25T16:13:11;101699.06;;;8.42;73.69
78014;BME280;67222;50.182;8.734;2024-01-25T16:15:38;101701.44;;;8.28;73.76
78014;BME280;67222;50.182;8.734;2024-01-25T16:18:04;101689.47;;;8.24;73.79
78014;BME280;67222;50.182;8.734;2024-01-25T16:20:30;101691.91;;;8.17;75.22
78014;BME280;67222;50.182;8.734;2024-01-25T16:22:55;101688.41;;;8.16;76.09
78014;BME280;67222;50.182;8.734;2024-01-25T16:25:21;101674.13;;;8.17;76.65
78014;BME280;67222;50.182;8.734;2024-01-25T16:27:47;101676.25;;;8.06;76.74
78014;BME280;67222;50.182;8.734;2024-01-25T16:30:14;101674.91;;;8.02;76.82
78014;BME280;67222;50.182;8.734;2024-01-25T16:32:39;101673.75;;;8.04;76.53
78014;BME280;67222;50.182;8.734;2024-01-25T16:35:05;101679.81;;;7.97;77.49
78014;BME280;67222;50.182;8.734;2024-01-25T16:37:30;101675.50;;;7.96;78.02
78014;BME280;67222;50.182;8.734;2024-01-25T16:39:56;101678.16;;;7.96;78.28
78014;BME280;67222;50.182;8.734;2024-01-25T16:42:21;101672.81;;;7.87;77.57
78014;BME280;67222;50.182;8.734;2024-01-25T16:44:46;101668.16;;;7.89;78.37
78014;BME280;67222;50.182;8.734;2024-01-25T16:47:11;101674.94;;;7.84;79.02
78014;BME280;67222;50.182;8.734;2024-01-25T16:49:37;101672.06;;;7.77;78.79
78014;BME280;67222;50.182;8.734;2024-01-25T16:52:02;101669.94;;;7.81;78.84
78014;BME280;67222;50.182;8.734;2024-01-25T16:54:27;101661.97;;;7.81;79.53
78014;BME280;67222;50.182;8.734;2024-01-25T16:56:53;101666.44;;;7.80;79.36
78014;BME280;67222;50.182;8.734;2024-01-25T16:59:18;101669.78;;;7.82;79.14
78014;BME280;67222;50.182;8.734;2024-01-25T17:01:43;101665.31;;;7.83;79.11
78014;BME280;67222;50.182;8.734;2024-01-25T17:04:09;101670.91;;;7.80;78.87
78014;BME280;67222;50.182;8.734;2024-01-25T17:06:36;101673.78;;;7.86;78.54
78014;BME280;67222;50.182;8.734;2024-01-25T17:09:04;101671.81;;;7.88;78.03
78014;BME280;67222;50.182;8.734;2024-01-25T17:11:30;101668.84;;;7.92;78.24
78014;BME280;67222;50.182;8.734;2024-01-25T17:13:56;101667.38;;;7.97;79.23
78014;BME280;67222;50.182;8.734;2024-01-25T17:16:22;101675.88;;;8.01;79.30
78014;BME280;67222;50.182;8.734;2024-01-25T17:18:47;101673.84;;;7.95;79.42
78014;BME280;67222;50.182;8.734;2024-01-25T17:21:12;101669.50;;;7.94;80.37
78014;BME280;67222;50.182;8.734;2024-01-25T17:23:37;101668.53;;;7.95;80.48
78014;BME280;67222;50.182;8.734;2024-01-25T17:26:03;101664.69;;;7.89;79.74
78014;BME280;67222;50.182;8.734;2024-01-25T17:28:29;101670.63;;;7.83;80.14
78014;BME280;67222;50.182;8.734;2024-01-25T17:30:55;101669.78;;;7.82;79.29
78014;BME280;67222;50.182;8.734;2024-01-25T17:33:20;101669.41;;;7.77;79.16
78014;BME280;67222;50.182;8.734;2024-01-25T17:35:45;101664.25;;;7.76;79.94
78014;BME280;67222;50.182;8.734;2024-01-25T17:38:16;101659.56;;;7.70;79.64
78014;BME280;67222;50.182;8.734;2024-01-25T17:40:42;101651.53;;;7.62;80.45
78014;BME280;67222;50.182;8.734;2024-01-25T17:43:08;101653.75;;;7.48;80.50
78014;BME280;67222;50.182;8.734;2024-01-25T17:45:33;101648.59;;;7.47;79.68
78014;BME280;67222;50.182;8.734;2024-01-25T17:47:59;101643.22;;;7.39;80.29
78014;BME280;67222;50.182;8.734;2024-01-25T17:50:24;101640.50;;;7.31;81.87
78014;BME280;67222;50.182;8.734;2024-01-25T17:52:49;101640.66;;;7.29;82.30
78014;BME280;67222;50.182;8.734;2024-01-25T17:55:14;101641.34;;;7.31;82.46
78014;BME280;67222;50.182;8.734;2024-01-25T17:57:40;101634.88;;;7.34;81.87
78014;BME280;67222;50.182;8.734;2024-01-25T18:00:05;101632.22;;;7.34;82.21
78014;BME280;67222;50.182;8.734;2024-01-25T18:02:31;101635.88;;;7.33;82.02
78014;BME280;67222;50.182;8.734;2024-01-25T18:04:56;101649.81;;;7.35;82.32
78014;BME280;67222;50.182;8.734;2024-01-25T18:07:21;101633.59;;;7.38;82.98
78014;BME280;67222;50.182;8.734;2024-01-25T18:09:47;101633.28;;;7.41;82.27
78014;BME280;67222;50.182;8.734;2024-01-25T18:12:12;101634.25;;;7.40;82.98
78014;BME280;67222;50.182;8.734;2024-01-25T18:14:38;101625.03;;;7.44;82.18
78014;BME280;67222;50.182;8.734;2024-01-25T18:17:03;101630.34;;;7.44;82.18
78014;BME280;67222;50.182;8.734;2024-01-25T18:19:28;101633.28;;;7.41;81.45
78014;BME280;67222;50.182;8.734;2024-01-25T18:21:57;101630.09;;;7.37;81.73